Time;durP1;ratioP1;P1;durP2;ratioP2;P2;SDS_P1;SDS_P2;PMS_P1;PMS_P2;Temp;Humidity;BMP_temperature;BMP_pressure;BME280_temperature;BME280_humidity;BME280_pressure;Samples;Min_cycle;Max_cycle;Signal;HPM_P1;HPM_P2
2023/09/09 00:00:29;;;;;;;5.32;4.28;;;;;;;;;;4886945;29;20032;-71
2023/09/09 00:02:55;;;;;;;6.25;4.70;;;;;;;;;;4904061;29;20068;-72
2023/09/09 00:05:21;;;;;;;4.72;4.32;;;;;;;;;;4887278;29;20029;-71
2023/09/09 00:07:47;;;;;;;5.22;4.47;;;;;;;;;;4916289;29;20055;-73
2023/09/09 00:10:13;;;;;;;5.35;4.32;;;;;;;;;;4906702;29;20036;-73
2023/09/09 00:12:39;;;;;;;6.88;5.28;;;;;;;;;;4907075;29;20071;-71
2023/09/09 00:15:06;;;;;;;6.07;5.25;;;;;;;;;;4893838;29;20394;-72
2023/09/09 00:17:32;;;;;;;5.60;4.32;;;;;;;;;;4903493;29;20040;-72
2023/09/09 00:19:58;;;;;;;6.57;5.50;;;;;;;;;;4916124;29;20028;-72
2023/09/09 00:22:24;;;;;;;7.22;4.88;;;;;;;;;;4922644;29;20044;-71
2023/09/09 00:24:50;;;;;;;7.13;5.35;;;;;;;;;;4914934;29;20421;-71
2023/09/09 00:27:16;;;;;;;8.02;5.85;;;;;;;;;;4922108;29;20586;-71
2023/09/09 00:29:42;;;;;;;5.85;5.22;;;;;;;;;;4922449;29;20035;-72
2023/09/09 00:32:08;;;;;;;5.13;4.40;;;;;;;;;;4903869;29;20032;-72
2023/09/09 00:34:34;;;;;;;5.68;4.65;;;;;;;;;;4903696;29;20028;-71
2023/09/09 00:37:03;;;;;;;5.80;5.20;;;;;;;;;;4886785;29;20025;-71
2023/09/09 00:39:29;;;;;;;6.05;4.72;;;;;;;;;;4904442;29;20028;-71
2023/09/09 00:41:55;;;;;;;5.35;4.82;;;;;;;;;;4903646;29;20111;-71
2023/09/09 00:44:21;;;;;;;5.10;4.35;;;;;;;;;;4886625;29;20502;-71
2023/09/09 00:46:47;;;;;;;5.50;4.40;;;;;;;;;;4903184;29;20036;-71
2023/09/09 00:49:13;;;;;;;7.05;5.72;;;;;;;;;;4904611;29;20025;-71
2023/09/09 00:51:39;;;;;;;5.60;5.05;;;;;;;;;;4903364;29;20029;-72
2023/09/09 00:54:06;;;;;;;6.03;4.78;;;;;;;;;;4886225;29;20058;-72
2023/09/09 00:56:35;;;;;;;5.38;4.82;;;;;;;;;;4903157;29;20043;-72
2023/09/09 00:59:01;;;;;;;7.38;6.03;;;;;;;;;;4903220;29;20032;-72
2023/09/09 01:01:27;;;;;;;5.80;5.25;;;;;;;;;;4886137;29;20123;-71
2023/09/09 01:03:53;;;;;;;5.30;4.80;;;;;;;;;;4903113;29;20467;-71
2023/09/09 01:06:20;;;;;;;8.23;6.55;;;;;;;;;;4902874;29;20036;-69
2023/09/09 01:08:46;;;;;;;9.23;6.18;;;;;;;;;;4903128;29;20450;-70
2023/09/09 01:11:12;;;;;;;6.88;6.03;;;;;;;;;;4902896;29;20035;-71
2023/09/09 01:13:38;;;;;;;7.80;5.70;;;;;;;;;;4902795;29;20048;-71
2023/09/09 01:16:05;;;;;;;7.53;5.82;;;;;;;;;;4902772;29;20398;-71
2023/09/09 01:18:33;;;;;;;5.47;4.95;;;;;;;;;;4899241;29;20072;-70
2023/09/09 01:21:08;;;;;;;6.28;5.68;;;;;;;;;;4921754;29;20028;-71
2023/09/09 01:23:34;;;;;;;5.22;4.72;;;;;;;;;;4921610;29;20028;-71
2023/09/09 01:26:00;;;;;;;8.00;5.68;;;;;;;;;;4912797;29;20088;-71
2023/09/09 01:28:26;;;;;;;6.78;5.80;;;;;;;;;;4921405;29;20107;-70
2023/09/09 01:30:52;;;;;;;5.82;5.22;;;;;;;;;;4921613;29;20035;-70
2023/09/09 01:33:18;;;;;;;5.63;4.90;;;;;;;;;;4921462;29;20032;-70
2023/09/09 01:35:46;;;;;;;6.85;6.15;;;;;;;;;;4904448;29;20438;-71
2023/09/09 01:38:12;;;;;;;7.25;6.38;;;;;;;;;;4901969;29;20036;-71
2023/09/09 01:40:38;;;;;;;9.05;6.90;;;;;;;;;;4903935;29;20040;-71
2023/09/09 01:43:04;;;;;;;6.47;5.30;;;;;;;;;;4885507;29;20482;-71
2023/09/09 01:45:30;;;;;;;6.28;4.90;;;;;;;;;;4902252;29;20028;-73
2023/09/09 01:47:56;;;;;;;6.68;5.50;;;;;;;;;;4903482;29;20024;-71
2023/09/09 01:50:22;;;;;;;7.57;5.43;;;;;;;;;;4902562;29;20039;-71
2023/09/09 01:52:48;;;;;;;7.28;5.25;;;;;;;;;;4902174;29;20443;-72
2023/09/09 01:55:14;;;;;;;5.80;5.25;;;;;;;;;;4885316;29;20080;-72
2023/09/09 01:57:40;;;;;;;5.95;4.93;;;;;;;;;;4885373;29;20036;-72
2023/09/09 02:00:07;;;;;;;7.68;6.70;;;;;;;;;;4902224;29;20035;-71
2023/09/09 02:02:33;;;;;;;7.88;6.45;;;;;;;;;;4901926;29;20036;-71
2023/09/09 02:04:59;;;;;;;8.07;6.13;;;;;;;;;;4884645;29;20081;-71
2023/09/09 02:07:25;;;;;;;7.22;6.53;;;;;;;;;;4902128;29;20029;-71
2023/09/09 02:09:51;;;;;;;6.60;5.90;;;;;;;;;;4902041;29;20025;-71
2023/09/09 02:12:17;;;;;;;6.40;5.80;;;;;;;;;;4901919;29;20052;-71
2023/09/09 02:14:43;;;;;;;7.07;5.72;;;;;;;;;;4902170;29;20099;-71
2023/09/09 02:17:09;;;;;;;8.35;6.28;;;;;;;;;;4884825;29;20054;-71
2023/09/09 02:19:36;;;;;;;9.65;7.63;;;;;;;;;;4910692;29;20032;-71
2023/09/09 02:22:02;;;;;;;8.57;7.63;;;;;;;;;;4920829;29;20067;-71
2023/09/09 02:24:28;;;;;;;7.97;6.53;;;;;;;;;;4916422;29;20028;-71
2023/09/09 02:26:54;;;;;;;6.38;5.78;;;;;;;;;;4916858;29;20032;-71
2023/09/09 02:29:20;;;;;;;6.40;5.55;;;;;;;;;;4920871;29;20028;-71
2023/09/09 02:31:46;;;;;;;6.88;6.03;;;;;;;;;;4903615;29;20028;-72
2023/09/09 02:34:12;;;;;;;8.18;5.72;;;;;;;;;;4920798;29;20200;-70
2023/09/09 02:36:43;;;;;;;6.05;5.45;;;;;;;;;;4903864;29;20040;-72
2023/09/09 02:39:10;;;;;;;6.80;5.13;;;;;;;;;;4894226;29;20035;-71
2023/09/09 02:41:36;;;;;;;6.35;5.20;;;;;;;;;;4886269;29;20039;-71
2023/09/09 02:44:02;;;;;;;7.07;5.47;;;;;;;;;;4901803;29;20108;-71
2023/09/09 02:46:28;;;;;;;5.97;5.40;;;;;;;;;;4901417;29;20074;-70
2023/09/09 02:48:54;;;;;;;5.65;5.03;;;;;;;;;;4886148;29;20025;-70
2023/09/09 02:51:20;;;;;;;6.95;6.18;;;;;;;;;;4901753;29;20028;-70
2023/09/09 02:53:46;;;;;;;7.43;5.93;;;;;;;;;;4901760;29;20021;-72
2023/09/09 02:56:12;;;;;;;7.63;6.88;;;;;;;;;;4884588;29;20029;-70
2023/09/09 02:58:38;;;;;;;8.75;6.97;;;;;;;;;;4901852;29;20111;-71
2023/09/09 03:01:04;;;;;;;8.57;7.63;;;;;;;;;;4901343;29;20040;-70
2023/09/09 03:03:31;;;;;;;9.23;6.25;;;;;;;;;;4901796;29;20113;-70
2023/09/09 03:05:57;;;;;;;7.05;6.32;;;;;;;;;;4900105;29;20520;-70
2023/09/09 03:08:23;;;;;;;6.63;5.57;;;;;;;;;;4901786;29;20040;-71
2023/09/09 03:10:49;;;;;;;6.38;5.72;;;;;;;;;;4901510;29;20402;-71
2023/09/09 03:13:15;;;;;;;7.00;6.28;;;;;;;;;;4899543;29;20048;-73
2023/09/09 03:15:41;;;;;;;8.57;6.30;;;;;;;;;;4921335;29;20442;-73
2023/09/09 03:18:07;;;;;;;5.97;5.38;;;;;;;;;;4923861;29;20485;-72
2023/09/09 03:20:33;;;;;;;7.50;6.07;;;;;;;;;;4940386;29;20115;-72
2023/09/09 03:22:59;;;;;;;6.20;5.45;;;;;;;;;;4942869;29;20028;-72
2023/09/09 03:25:25;;;;;;;6.32;5.72;;;;;;;;;;4934294;29;20032;-72
2023/09/09 03:27:51;;;;;;;6.20;5.60;;;;;;;;;;4942696;29;20396;-72
2023/09/09 03:30:17;;;;;;;7.22;5.70;;;;;;;;;;4942574;29;20119;-72
2023/09/09 03:32:43;;;;;;;7.32;5.72;;;;;;;;;;4942820;29;20087;-71
2023/09/09 03:35:09;;;;;;;6.25;5.45;;;;;;;;;;4942535;29;20032;-70
2023/09/09 03:37:35;;;;;;;6.45;5.18;;;;;;;;;;4942736;29;20535;-70
2023/09/09 03:40:03;;;;;;;6.63;5.22;;;;;;;;;;4927366;29;20028;-70
2023/09/09 03:42:29;;;;;;;6.13;5.53;;;;;;;;;;4923492;29;20028;-71
2023/09/09 03:44:55;;;;;;;6.15;5.05;;;;;;;;;;4923256;29;20035;-70
2023/09/09 03:47:21;;;;;;;6.93;5.38;;;;;;;;;;4923127;29;20059;-71
2023/09/09 03:49:48;;;;;;;6.13;5.53;;;;;;;;;;4924767;29;20080;-71
2023/09/09 03:52:14;;;;;;;6.25;5.65;;;;;;;;;;4906337;29;20024;-71
2023/09/09 03:54:40;;;;;;;7.13;5.47;;;;;;;;;;4923055;29;20024;-71
2023/09/09 03:57:06;;;;;;;6.95;5.45;;;;;;;;;;4906292;29;20020;-71
2023/09/09 03:59:33;;;;;;;6.47;5.88;;;;;;;;;;4923193;29;20056;-72
2023/09/09 04:01:59;;;;;;;6.13;5.53;;;;;;;;;;4923087;29;20039;-70
2023/09/09 04:04:25;;;;;;;6.50;5.72;;;;;;;;;;4905963;29;20421;-69
2023/09/09 04:06:51;;;;;;;5.68;5.13;;;;;;;;;;4906109;29;20048;-71
2023/09/09 04:09:22;;;;;;;6.88;5.57;;;;;;;;;;4906021;29;20032;-71
2023/09/09 04:11:48;;;;;;;6.00;5.40;;;;;;;;;;4919088;29;20036;-72
2023/09/09 04:14:14;;;;;;;6.00;5.10;;;;;;;;;;4887124;29;20145;-71
2023/09/09 04:16:40;;;;;;;5.60;4.97;;;;;;;;;;4903818;29;20028;-72
2023/09/09 04:19:06;;;;;;;8.68;5.38;;;;;;;;;;4908136;29;20032;-71
2023/09/09 04:21:32;;;;;;;6.75;5.60;;;;;;;;;;4905812;29;20085;-70
2023/09/09 04:23:58;;;;;;;6.28;5.65;;;;;;;;;;4921947;29;20068;-71
2023/09/09 04:26:24;;;;;;;5.93;5.32;;;;;;;;;;4897280;29;20123;-71
2023/09/09 04:28:50;;;;;;;8.43;5.22;;;;;;;;;;4921867;29;20449;-71
2023/09/09 04:31:16;;;;;;;6.68;6.00;;;;;;;;;;4922495;29;20024;-71
2023/09/09 04:33:42;;;;;;;6.40;5.80;;;;;;;;;;4905413;29;20409;-71
2023/09/09 04:36:08;;;;;;;5.80;5.30;;;;;;;;;;4922494;29;20032;-71
2023/09/09 04:38:34;;;;;;;8.07;6.35;;;;;;;;;;4917394;29;20037;-71
2023/09/09 04:41:00;;;;;;;6.45;5.13;;;;;;;;;;4905068;29;20029;-71
2023/09/09 04:43:26;;;;;;;6.10;5.45;;;;;;;;;;4903544;29;20056;-73
2023/09/09 04:45:52;;;;;;;5.18;4.68;;;;;;;;;;4903451;29;20554;-73
2023/09/09 04:48:18;;;;;;;8.63;6.82;;;;;;;;;;4904335;29;20112;-71
2023/09/09 04:50:45;;;;;;;6.07;5.47;;;;;;;;;;4903560;29;20076;-70
2023/09/09 04:53:11;;;;;;;6.10;5.20;;;;;;;;;;4903119;29;20059;-70
2023/09/09 04:55:37;;;;;;;8.02;5.70;;;;;;;;;;4903365;29;20031;-72
2023/09/09 04:58:03;;;;;;;6.18;5.25;;;;;;;;;;4903054;29;20069;-70
2023/09/09 05:00:29;;;;;;;6.82;5.35;;;;;;;;;;4903113;29;20032;-70
2023/09/09 05:02:55;;;;;;;7.20;5.78;;;;;;;;;;4902995;29;20043;-71
2023/09/09 05:05:21;;;;;;;6.35;5.18;;;;;;;;;;4886262;29;20033;-72
2023/09/09 05:07:47;;;;;;;6.30;5.30;;;;;;;;;;4902880;29;20400;-72
2023/09/09 05:10:13;;;;;;;5.50;5.00;;;;;;;;;;4902976;29;20542;-72
2023/09/09 05:12:39;;;;;;;6.30;5.20;;;;;;;;;;4902669;29;20045;-72
2023/09/09 05:15:07;;;;;;;5.47;4.95;;;;;;;;;;4886026;29;20061;-72
2023/09/09 05:17:33;;;;;;;5.88;5.18;;;;;;;;;;4902527;29;20029;-72
2023/09/09 05:19:59;;;;;;;8.25;5.95;;;;;;;;;;4915205;29;20083;-72
2023/09/09 05:22:25;;;;;;;8.23;6.10;;;;;;;;;;4904521;29;20028;-72
2023/09/09 05:24:51;;;;;;;6.32;5.53;;;;;;;;;;4913839;29;20039;-71
2023/09/09 05:27:17;;;;;;;5.82;5.03;;;;;;;;;;4921141;29;20036;-72
2023/09/09 05:29:43;;;;;;;6.75;5.60;;;;;;;;;;4921596;29;20024;-72
2023/09/09 05:32:09;;;;;;;6.45;5.00;;;;;;;;;;4921549;29;20095;-73
2023/09/09 05:34:36;;;;;;;5.65;5.15;;;;;;;;;;4921469;29;20024;-71
2023/09/09 05:37:02;;;;;;;5.70;4.75;;;;;;;;;;4904568;29;20034;-71
2023/09/09 05:39:28;;;;;;;5.55;5.05;;;;;;;;;;4909500;29;20494;-72
2023/09/09 05:41:54;;;;;;;9.63;6.55;;;;;;;;;;4902830;29;20518;-72
2023/09/09 05:44:20;;;;;;;6.97;5.93;;;;;;;;;;4885722;29;20409;-72
2023/09/09 05:46:46;;;;;;;5.25;4.45;;;;;;;;;;4885207;29;20033;-72
2023/09/09 05:49:12;;;;;;;6.30;4.75;;;;;;;;;;4904187;29;20023;-72
2023/09/09 05:51:38;;;;;;;8.15;5.63;;;;;;;;;;4902206;29;20028;-70
2023/09/09 05:54:04;;;;;;;7.45;6.10;;;;;;;;;;4902289;29;20024;-70
2023/09/09 05:56:30;;;;;;;5.65;5.03;;;;;;;;;;4902083;29;20024;-70
2023/09/09 05:58:56;;;;;;;6.65;5.30;;;;;;;;;;4885356;29;20061;-71
2023/09/09 06:01:22;;;;;;;5.65;4.97;;;;;;;;;;4885127;29;20036;-70
2023/09/09 06:03:54;;;;;;;6.07;5.47;;;;;;;;;;4902153;29;20097;-70
2023/09/09 06:06:20;;;;;;;6.53;5.45;;;;;;;;;;4902138;29;20036;-70
2023/09/09 06:08:46;;;;;;;5.90;5.03;;;;;;;;;;4902143;29;20060;-71
2023/09/09 06:11:12;;;;;;;6.63;5.32;;;;;;;;;;4902063;29;20085;-72
2023/09/09 06:13:38;;;;;;;7.97;6.13;;;;;;;;;;4901870;29;20052;-72
2023/09/09 06:16:04;;;;;;;6.97;6.28;;;;;;;;;;4901658;29;20124;-73
2023/09/09 06:18:30;;;;;;;7.43;6.20;;;;;;;;;;4885062;29;20029;-72
2023/09/09 06:20:57;;;;;;;7.85;6.28;;;;;;;;;;4903671;29;20033;-72
2023/09/09 06:23:23;;;;;;;7.15;5.97;;;;;;;;;;4911038;29;20020;-72
2023/09/09 06:25:50;;;;;;;7.35;5.60;;;;;;;;;;4907085;29;20501;-72
2023/09/09 06:28:16;;;;;;;7.38;5.72;;;;;;;;;;4910283;29;20025;-72
2023/09/09 06:30:43;;;;;;;8.50;5.85;;;;;;;;;;4884654;29;20573;-72
2023/09/09 06:33:09;;;;;;;6.22;5.63;;;;;;;;;;4903108;29;20040;-72
2023/09/09 06:35:35;;;;;;;5.88;5.20;;;;;;;;;;4884831;29;20032;-72
2023/09/09 06:38:01;;;;;;;5.85;5.25;;;;;;;;;;4884629;29;20032;-72
2023/09/09 06:40:27;;;;;;;5.88;5.13;;;;;;;;;;4903017;29;20056;-72
2023/09/09 06:42:54;;;;;;;6.53;5.63;;;;;;;;;;4903193;29;20464;-72
2023/09/09 06:45:20;;;;;;;5.90;5.30;;;;;;;;;;4901439;29;20029;-72
2023/09/09 06:47:46;;;;;;;6.03;5.00;;;;;;;;;;4890375;29;20062;-72
2023/09/09 06:50:12;;;;;;;6.35;5.75;;;;;;;;;;4919491;29;20103;-71
2023/09/09 06:52:38;;;;;;;6.80;5.35;;;;;;;;;;4920008;29;20039;-71
2023/09/09 06:55:08;;;;;;;6.55;5.32;;;;;;;;;;4897793;29;20025;-71
2023/09/09 06:57:34;;;;;;;5.57;4.85;;;;;;;;;;4913718;29;20032;-71
2023/09/09 07:00:00;;;;;;;5.93;5.25;;;;;;;;;;4921650;29;20031;-71
2023/09/09 07:02:26;;;;;;;6.57;5.55;;;;;;;;;;4921246;29;20056;-71
2023/09/09 07:04:53;;;;;;;5.60;4.88;;;;;;;;;;4893127;29;20450;-72
2023/09/09 07:07:19;;;;;;;5.97;5.38;;;;;;;;;;4912734;29;20123;-71
2023/09/09 07:09:45;;;;;;;7.32;4.95;;;;;;;;;;4896956;29;20039;-72
2023/09/09 07:12:11;;;;;;;7.03;5.03;;;;;;;;;;4904628;29;20453;-72
2023/09/09 07:14:37;;;;;;;7.47;5.47;;;;;;;;;;4911489;29;20035;-72
2023/09/09 07:17:04;;;;;;;6.22;5.28;;;;;;;;;;4933835;29;20055;-72
2023/09/09 07:19:30;;;;;;;5.43;4.85;;;;;;;;;;4923445;29;20055;-72
2023/09/09 07:21:55;;;;;;;6.93;4.60;;;;;;;;;;4926586;29;20032;-72
2023/09/09 07:24:21;;;;;;;5.88;5.28;;;;;;;;;;4937336;29;20091;-72
2023/09/09 07:26:48;;;;;;;5.68;4.53;;;;;;;;;;4934554;29;20024;-72
2023/09/09 07:29:14;;;;;;;5.53;4.60;;;;;;;;;;4939245;29;20028;-72
2023/09/09 07:31:40;;;;;;;6.60;4.57;;;;;;;;;;4939272;29;20027;-72
2023/09/09 07:34:06;;;;;;;6.88;4.65;;;;;;;;;;4935436;29;20032;-72
2023/09/09 07:36:32;;;;;;;6.95;4.65;;;;;;;;;;4918746;29;20626;-72
2023/09/09 07:38:58;;;;;;;5.60;4.18;;;;;;;;;;4934150;29;20036;-72
2023/09/09 07:41:24;;;;;;;7.07;4.32;;;;;;;;;;4909531;29;20511;-72
2023/09/09 07:43:50;;;;;;;6.63;4.10;;;;;;;;;;4922350;29;20019;-72
2023/09/09 07:46:16;;;;;;;6.32;4.10;;;;;;;;;;4933747;29;20832;-72
2023/09/09 07:48:42;;;;;;;6.50;3.92;;;;;;;;;;4923284;29;20035;-72
2023/09/09 07:51:08;;;;;;;5.40;3.80;;;;;;;;;;4934496;29;20035;-71
2023/09/09 07:53:34;;;;;;;5.82;3.80;;;;;;;;;;4936400;29;20152;-66
2023/09/09 07:56:00;;;;;;;6.55;3.53;;;;;;;;;;4919952;29;20386;-69
2023/09/09 07:58:26;;;;;;;5.13;3.60;;;;;;;;;;4924249;29;20120;-70
2023/09/09 08:01:03;;;;;;;5.05;3.90;;;;;;;;;;4937226;29;20063;-69
2023/09/09 08:03:29;;;;;;;4.65;3.28;;;;;;;;;;4934503;29;20056;-69
2023/09/09 08:06:02;;;;;;;4.97;3.80;;;;;;;;;;4920361;29;20400;-69
2023/09/09 08:08:28;;;;;;;;;;;;;;;;;;4936834;29;20020;-71
2023/09/09 08:10:54;;;;;;;5.72;3.30;;;;;;;;;;4940057;29;20367;-71
2023/09/09 08:13:20;;;;;;;6.75;3.83;;;;;;;;;;4931088;29;20052;-72
2023/09/09 08:15:46;;;;;;;7.32;3.42;;;;;;;;;;4931515;29;20048;-69
2023/09/09 08:18:12;;;;;;;6.30;3.72;;;;;;;;;;4930346;29;20059;-69
2023/09/09 08:20:38;;;;;;;3.53;2.90;;;;;;;;;;4927185;29;20047;-69
2023/09/09 08:23:04;;;;;;;5.43;3.08;;;;;;;;;;4928225;29;20032;-69
2023/09/09 08:25:33;;;;;;;7.65;3.55;;;;;;;;;;4933318;29;20457;-69
2023/09/09 08:28:01;;;;;;;5.53;3.45;;;;;;;;;;4915245;29;20103;-69
2023/09/09 08:30:27;;;;;;;5.65;3.55;;;;;;;;;;4927987;29;20408;-69
2023/09/09 08:32:53;;;;;;;4.55;3.45;;;;;;;;;;4931918;29;20035;-69
2023/09/09 08:35:19;;;;;;;4.45;3.50;;;;;;;;;;4911684;29;20040;-69
2023/09/09 08:37:45;;;;;;;5.22;3.45;;;;;;;;;;4929531;29;20088;-69
2023/09/09 08:40:12;;;;;;;5.50;3.30;;;;;;;;;;4932650;29;20032;-71
2023/09/09 08:42:41;;;;;;;5.18;3.65;;;;;;;;;;4928448;29;20043;-70
2023/09/09 08:45:09;;;;;;;4.47;3.10;;;;;;;;;;4911383;29;20028;-72
2023/09/09 08:47:36;;;;;;;5.78;3.25;;;;;;;;;;4931172;29;20091;-73
2023/09/09 08:50:04;;;;;;;4.28;3.05;;;;;;;;;;4926597;29;20030;-72
2023/09/09 08:52:30;;;;;;;4.45;2.85;;;;;;;;;;4932289;29;20032;-71
2023/09/09 08:54:56;;;;;;;4.35;3.42;;;;;;;;;;4931226;29;20080;-70
2023/09/09 08:57:25;;;;;;;5.10;3.58;;;;;;;;;;4908861;29;20024;-72
2023/09/09 08:59:51;;;;;;;4.10;3.40;;;;;;;;;;4930234;29;20101;-73
2023/09/09 09:02:17;;;;;;;5.10;3.30;;;;;;;;;;4932216;29;20396;-74
2023/09/09 09:04:44;;;;;;;5.50;3.47;;;;;;;;;;4929986;29;20035;-73
2023/09/09 09:07:10;;;;;;;4.88;2.83;;;;;;;;;;4930958;29;20119;-72
2023/09/09 09:09:36;;;;;;;3.42;3.10;;;;;;;;;;4912339;29;20912;-71
2023/09/09 09:12:06;;;;;;;5.32;3.15;;;;;;;;;;4925802;29;20103;-72
2023/09/09 09:14:32;;;;;;;6.28;3.33;;;;;;;;;;4930185;29;20516;-72
2023/09/09 09:16:58;;;;;;;7.55;3.45;;;;;;;;;;4925079;29;20042;-68
2023/09/09 09:19:28;;;;;;;6.45;3.67;;;;;;;;;;4927488;29;20088;-69
2023/09/09 09:21:55;;;;;;;4.05;3.22;;;;;;;;;;4926701;29;20036;-69
2023/09/09 09:24:28;;;;;;;3.45;3.13;;;;;;;;;;4921584;29;20028;-69
2023/09/09 09:26:55;;;;;;;6.13;3.40;;;;;;;;;;4935583;29;20038;-69
2023/09/09 09:29:21;;;;;;;6.97;3.78;;;;;;;;;;4940487;29;20019;-69
2023/09/09 09:31:51;;;;;;;4.97;3.13;;;;;;;;;;4919409;29;20032;-70
2023/09/09 09:34:18;;;;;;;3.75;2.78;;;;;;;;;;4928623;29;20051;-68
2023/09/09 09:36:45;;;;;;;4.97;3.22;;;;;;;;;;4921209;29;20056;-66
2023/09/09 09:39:11;;;;;;;4.47;3.35;;;;;;;;;;4921336;29;20031;-66
2023/09/09 09:41:40;;;;;;;4.00;3.10;;;;;;;;;;4922607;29;20035;-65
2023/09/09 09:44:17;;;;;;;5.63;3.47;;;;;;;;;;4921136;29;20024;-66
2023/09/09 09:46:43;;;;;;;3.70;2.83;;;;;;;;;;4920846;29;20606;-66
2023/09/09 09:49:09;;;;;;;4.35;3.10;;;;;;;;;;4922491;29;20035;-66
2023/09/09 09:51:45;;;;;;;4.93;2.90;;;;;;;;;;4903941;29;20115;-66
2023/09/09 09:54:17;;;;;;;4.93;3.50;;;;;;;;;;4920934;29;20108;-66
2023/09/09 09:56:45;;;;;;;3.88;3.03;;;;;;;;;;4922075;29;20028;-72
2023/09/09 09:59:11;;;;;;;4.30;2.83;;;;;;;;;;4924840;29;20025;-71
2023/09/09 10:01:37;;;;;;;4.45;3.00;;;;;;;;;;4920128;29;20039;-70
2023/09/09 10:04:06;;;;;;;7.20;3.60;;;;;;;;;;4925768;29;20031;-69
2023/09/09 10:06:34;;;;;;;6.20;3.10;;;;;;;;;;4928921;29;20025;-75
2023/09/09 10:09:11;;;;;;;5.50;2.80;;;;;;;;;;4928982;29;20024;-71
2023/09/09 10:11:42;;;;;;;5.25;3.17;;;;;;;;;;4938924;29;20031;-77
2023/09/09 10:14:14;;;;;;;5.78;2.90;;;;;;;;;;4934133;29;20056;-66
2023/09/09 10:16:40;;;;;;;4.30;3.17;;;;;;;;;;4919951;29;20026;-66
2023/09/09 10:19:07;;;;;;;6.20;3.40;;;;;;;;;;4922939;29;20374;-66
2023/09/09 10:21:34;;;;;;;5.15;3.53;;;;;;;;;;4919205;29;20401;-66
2023/09/09 10:24:02;;;;;;;4.95;3.00;;;;;;;;;;4920300;29;20024;-66
2023/09/09 10:26:28;;;;;;;4.95;3.45;;;;;;;;;;4919991;29;20055;-66
2023/09/09 10:28:54;;;;;;;6.47;3.85;;;;;;;;;;4944928;29;20027;-65
2023/09/09 10:31:20;;;;;;;4.65;3.15;;;;;;;;;;4945440;29;20023;-66
2023/09/09 10:33:48;;;;;;;5.90;3.80;;;;;;;;;;4939949;29;20409;-66
2023/09/09 10:36:15;;;;;;;6.38;3.22;;;;;;;;;;4909955;29;20058;-67
2023/09/09 10:38:41;;;;;;;6.32;3.53;;;;;;;;;;4926767;29;20024;-67
2023/09/09 10:41:08;;;;;;;4.57;3.30;;;;;;;;;;4933609;29;20028;-67
2023/09/09 10:43:34;;;;;;;4.28;3.20;;;;;;;;;;4934520;29;20470;-67
2023/09/09 10:46:00;;;;;;;4.40;3.00;;;;;;;;;;4918687;29;20059;-67
2023/09/09 10:48:28;;;;;;;4.70;3.03;;;;;;;;;;4936276;29;20111;-67
2023/09/09 10:50:54;;;;;;;3.53;2.70;;;;;;;;;;4936463;29;20031;-67
2023/09/09 10:53:22;;;;;;;4.75;3.25;;;;;;;;;;4935118;29;20020;-67
2023/09/09 10:55:49;;;;;;;4.53;2.80;;;;;;;;;;4934563;29;20024;-67
2023/09/09 10:58:16;;;;;;;4.35;2.70;;;;;;;;;;4935564;29;20019;-67
2023/09/09 11:00:44;;;;;;;4.43;2.65;;;;;;;;;;4936252;29;20020;-67
2023/09/09 11:03:22;;;;;;;5.22;2.95;;;;;;;;;;4935846;29;20035;-67
2023/09/09 11:06:10;;;;;;;4.72;2.55;;;;;;;;;;4933497;29;20095;-67
2023/09/09 11:08:42;;;;;;;3.50;2.65;;;;;;;;;;4932421;29;20024;-66
2023/09/09 11:11:11;;;;;;;3.38;2.67;;;;;;;;;;4934255;29;20024;-65
2023/09/09 11:13:41;;;;;;;4.72;2.95;;;;;;;;;;4936424;29;20091;-66
2023/09/09 11:16:07;;;;;;;5.20;2.75;;;;;;;;;;4934672;29;20087;-67
2023/09/09 11:18:35;;;;;;;3.25;2.50;;;;;;;;;;4918367;29;20026;-67
2023/09/09 11:21:03;;;;;;;3.65;2.80;;;;;;;;;;4934283;29;20061;-67
2023/09/09 11:23:31;;;;;;;2.85;2.53;;;;;;;;;;4934215;29;20051;-67
2023/09/09 11:25:57;;;;;;;4.35;2.55;;;;;;;;;;4918054;29;20099;-68
2023/09/09 11:28:24;;;;;;;3.35;2.60;;;;;;;;;;4935766;29;20032;-67
2023/09/09 11:30:50;;;;;;;3.13;2.65;;;;;;;;;;4935121;29;20052;-66
2023/09/09 11:33:25;;;;;;;4.22;2.60;;;;;;;;;;4918281;29;20027;-66
2023/09/09 11:35:51;;;;;;;3.50;2.40;;;;;;;;;;4934521;29;20556;-66
2023/09/09 11:38:17;;;;;;;4.22;3.13;;;;;;;;;;4915592;29;20024;-67
2023/09/09 11:40:46;;;;;;;3.80;2.72;;;;;;;;;;4933077;29;21014;-67
2023/09/09 11:43:14;;;;;;;4.85;2.78;;;;;;;;;;4929703;29;20020;-67
2023/09/09 11:45:40;;;;;;;3.38;2.67;;;;;;;;;;4931366;29;20104;-67
2023/09/09 11:48:13;;;;;;;5.43;2.80;;;;;;;;;;4933292;29;20032;-66
2023/09/09 11:50:40;;;;;;;5.03;2.85;;;;;;;;;;4930523;29;20401;-67
2023/09/09 11:53:06;;;;;;;6.10;2.97;;;;;;;;;;4935691;29;20020;-67
2023/09/09 11:55:32;;;;;;;4.25;2.60;;;;;;;;;;4933195;29;20039;-66
2023/09/09 11:57:58;;;;;;;4.38;2.65;;;;;;;;;;4931227;29;20066;-66
2023/09/09 12:00:24;;;;;;;4.35;2.80;;;;;;;;;;4933130;29;20043;-66
2023/09/09 12:02:50;;;;;;;3.10;2.38;;;;;;;;;;4930930;29;20059;-67
2023/09/09 12:05:16;;;;;;;4.60;2.85;;;;;;;;;;4933578;29;20039;-68
2023/09/09 12:07:43;;;;;;;3.65;2.80;;;;;;;;;;4941860;29;20031;-73
2023/09/09 12:10:14;;;;;;;3.72;2.53;;;;;;;;;;4942056;29;20055;-65
2023/09/09 12:12:41;;;;;;;6.60;2.75;;;;;;;;;;4941783;29;20039;-65
2023/09/09 12:15:08;;;;;;;4.00;2.65;;;;;;;;;;4941885;29;20510;-66
2023/09/09 12:17:34;;;;;;;3.83;2.85;;;;;;;;;;4924560;29;20032;-66
2023/09/09 12:20:04;;;;;;;4.45;2.75;;;;;;;;;;4934240;29;20047;-69
2023/09/09 12:22:41;;;;;;;3.35;2.45;;;;;;;;;;4923331;29;20032;-68
2023/09/09 12:25:27;;;;;;;2.50;2.25;;;;;;;;;;4917760;29;20032;-68
2023/09/09 12:27:53;;;;;;;4.75;3.50;;;;;;;;;;4936468;29;20024;-68
2023/09/09 12:30:31;;;;;;;4.13;2.92;;;;;;;;;;4932851;29;20044;-68
2023/09/09 12:33:03;;;;;;;4.60;2.65;;;;;;;;;;4931288;29;20020;-72
2023/09/09 12:35:32;;;;;;;3.75;2.78;;;;;;;;;;4932186;29;20074;-66
2023/09/09 12:37:58;;;;;;;4.53;2.55;;;;;;;;;;4941104;29;20032;-67
2023/09/09 12:40:24;;;;;;;4.28;2.70;;;;;;;;;;4906922;29;20508;-67
2023/09/09 12:42:50;;;;;;;3.60;2.67;;;;;;;;;;4922443;29;20454;-68
2023/09/09 12:45:16;;;;;;;4.43;2.70;;;;;;;;;;4922248;29;20084;-67
2023/09/09 12:47:42;;;;;;;4.15;2.90;;;;;;;;;;4906062;29;20462;-68
2023/09/09 12:50:08;;;;;;;4.55;2.88;;;;;;;;;;4921151;29;20194;-68
2023/09/09 12:52:34;;;;;;;3.85;2.88;;;;;;;;;;4922259;29;20028;-67
2023/09/09 12:55:00;;;;;;;8.38;3.15;;;;;;;;;;4929581;29;20044;-67
2023/09/09 12:57:26;;;;;;;4.03;2.70;;;;;;;;;;4905146;29;20028;-67
2023/09/09 12:59:52;;;;;;;3.47;2.70;;;;;;;;;;4924518;29;20122;-68
2023/09/09 13:02:18;;;;;;;3.85;2.40;;;;;;;;;;4935227;29;20082;-68
2023/09/09 13:04:44;;;;;;;3.28;2.10;;;;;;;;;;4923947;29;20552;-68
2023/09/09 13:07:10;;;;;;;3.53;2.45;;;;;;;;;;4923641;29;20079;-69
2023/09/09 13:09:36;;;;;;;2.95;2.30;;;;;;;;;;4941037;29;20047;-68
2023/09/09 13:12:03;;;;;;;2.90;2.45;;;;;;;;;;4940689;29;20048;-68
2023/09/09 13:14:29;;;;;;;3.67;2.05;;;;;;;;;;4940687;29;20062;-68
2023/09/09 13:16:55;;;;;;;3.55;2.28;;;;;;;;;;4940171;29;20024;-68
2023/09/09 13:19:21;;;;;;;2.75;2.20;;;;;;;;;;4940040;29;20053;-68
2023/09/09 13:21:48;;;;;;;3.42;2.17;;;;;;;;;;4938577;29;20100;-68
2023/09/09 13:24:14;;;;;;;3.35;2.00;;;;;;;;;;4937774;29;20043;-68
2023/09/09 13:26:40;;;;;;;3.20;2.38;;;;;;;;;;4933874;29;20024;-68
2023/09/09 13:29:06;;;;;;;4.85;2.30;;;;;;;;;;4940352;29;20031;-69
2023/09/09 13:31:32;;;;;;;2.38;2.17;;;;;;;;;;4930832;29;20027;-69
2023/09/09 13:33:58;;;;;;;3.22;2.40;;;;;;;;;;4929906;29;20019;-69
2023/09/09 13:36:24;;;;;;;4.32;2.25;;;;;;;;;;4912559;29;20020;-72
2023/09/09 13:38:50;;;;;;;4.28;1.90;;;;;;;;;;4927896;29;20039;-71
2023/09/09 13:41:16;;;;;;;2.88;2.10;;;;;;;;;;4930184;29;20548;-72
2023/09/09 13:43:42;;;;;;;2.95;2.13;;;;;;;;;;4912509;29;20059;-71
2023/09/09 13:46:10;;;;;;;2.70;2.05;;;;;;;;;;4928998;29;20051;-72
2023/09/09 13:48:36;;;;;;;2.60;1.90;;;;;;;;;;4914951;29;20027;-70
2023/09/09 13:51:02;;;;;;;3.03;1.98;;;;;;;;;;4930420;29;20106;-70
2023/09/09 13:53:28;;;;;;;2.65;2.00;;;;;;;;;;4930769;29;20031;-70
2023/09/09 13:55:56;;;;;;;3.05;1.95;;;;;;;;;;4929592;29;20493;-69
2023/09/09 13:58:22;;;;;;;4.15;1.85;;;;;;;;;;4911941;29;20032;-69
2023/09/09 14:00:50;;;;;;;2.15;1.88;;;;;;;;;;4910698;29;20417;-69
2023/09/09 14:03:16;;;;;;;2.05;1.70;;;;;;;;;;4930497;29;20035;-69
2023/09/09 14:05:42;;;;;;;2.75;1.70;;;;;;;;;;4913217;29;20484;-71
2023/09/09 14:08:08;;;;;;;1.88;1.52;;;;;;;;;;4931646;29;20061;-71
2023/09/09 14:10:34;;;;;;;1.90;1.70;;;;;;;;;;4913285;29;20037;-70
2023/09/09 14:13:00;;;;;;;5.10;1.70;;;;;;;;;;4922782;29;20090;-70
2023/09/09 14:15:26;;;;;;;2.22;1.55;;;;;;;;;;4893169;29;20021;-71
2023/09/09 14:17:52;;;;;;;2.17;1.77;;;;;;;;;;4895271;29;20036;-71
2023/09/09 14:20:18;;;;;;;4.82;2.05;;;;;;;;;;4915357;29;20029;-70
2023/09/09 14:22:44;;;;;;;3.05;1.85;;;;;;;;;;4895072;29;20025;-70
2023/09/09 14:25:10;;;;;;;4.22;1.75;;;;;;;;;;4918573;29;20595;-70
2023/09/09 14:27:36;;;;;;;3.45;1.77;;;;;;;;;;4894570;29;20024;-68
2023/09/09 14:30:02;;;;;;;2.20;1.70;;;;;;;;;;4917965;29;20032;-68
2023/09/09 14:32:28;;;;;;;2.35;1.75;;;;;;;;;;4895855;29;20496;-70
2023/09/09 14:34:54;;;;;;;3.05;1.63;;;;;;;;;;4917262;29;20020;-70
2023/09/09 14:37:20;;;;;;;2.25;1.65;;;;;;;;;;4918459;29;20397;-70
2023/09/09 14:39:46;;;;;;;1.67;1.40;;;;;;;;;;4893151;29;20032;-69